sensor_id;sensor_type;location;lat;lon;timestamp;pressure;altitude;pressure_sealevel;temperature;humidity
27202;BME280;14717;46.924;15.474;2023-04-06T00:00:23;98183.72;;;0.44;70.27
27202;BME280;14717;46.924;15.474;2023-04-06T00:02:48;98184.22;;;0.35;71.45
27202;BME280;14717;46.924;15.474;2023-04-06T00:05:14;98177.16;;;0.28;71.26
27202;BME280;14717;46.924;15.474;2023-04-06T00:07:39;98184.13;;;0.17;71.86
27202;BME280;14717;46.924;15.474;2023-04-06T00:10:06;98175.34;;;0.22;70.59
27202;BME280;14717;46.924;15.474;2023-04-06T00:12:31;98173.22;;;0.24;70.86
27202;BME280;14717;46.924;15.474;2023-04-06T00:14:57;98172.19;;;0.25;70.13
27202;BME280;14717;46.924;15.474;2023-04-06T00:17:22;98171.28;;;0.31;70.13
27202;BME280;14717;46.924;15.474;2023-04-06T00:19:47;98161.94;;;0.27;70.41
27202;BME280;14717;46.924;15.474;2023-04-06T00:22:13;98162.25;;;0.37;70.97
27202;BME280;14717;46.924;15.474;2023-04-06T00:24:38;98158.09;;;0.34;71.19
27202;BME280;14717;46.924;15.474;2023-04-06T00:27:04;98160.50;;;0.18;70.66
27202;BME280;14717;46.924;15.474;2023-04-06T00:29:29;98153.75;;;0.02;70.78
27202;BME280;14717;46.924;15.474;2023-04-06T00:31:55;98153.53;;;0.04;70.40
27202;BME280;14717;46.924;15.474;2023-04-06T00:34:20;98155.25;;;0.23;70.78
27202;BME280;14717;46.924;15.474;2023-04-06T00:36:46;98158.81;;;0.23;70.90
27202;BME280;14717;46.924;15.474;2023-04-06T00:39:11;98154.88;;;0.19;70.96
27202;BME280;14717;46.924;15.474;2023-04-06T00:41:36;98157.09;;;0.29;71.39
27202;BME280;14717;46.924;15.474;2023-04-06T00:44:02;98154.59;;;0.27;72.10
27202;BME280;14717;46.924;15.474;2023-04-06T00:46:28;98154.66;;;0.21;71.21
27202;BME280;14717;46.924;15.474;2023-04-06T00:48:53;98147.56;;;0.20;71.94
27202;BME280;14717;46.924;15.474;2023-04-06T00:51:19;98149.22;;;0.21;72.24
27202;BME280;14717;46.924;15.474;2023-04-06T00:53:44;98144.22;;;0.18;71.56
27202;BME280;14717;46.924;15.474;2023-04-06T00:56:10;98146.38;;;0.09;71.99
27202;BME280;14717;46.924;15.474;2023-04-06T00:58:35;98134.59;;;-0.02;72.03
27202;BME280;14717;46.924;15.474;2023-04-06T01:01:04;98141.09;;;-0.10;72.29
27202;BME280;14717;46.924;15.474;2023-04-06T01:03:29;98138.94;;;-0.26;72.09
27202;BME280;14717;46.924;15.474;2023-04-06T01:05:55;98142.31;;;-0.37;72.69
27202;BME280;14717;46.924;15.474;2023-04-06T01:08:24;98145.53;;;-0.46;71.98
27202;BME280;14717;46.924;15.474;2023-04-06T01:10:49;98143.75;;;-0.28;73.10
27202;BME280;14717;46.924;15.474;2023-04-06T01:13:15;98137.50;;;-0.35;72.38
27202;BME280;14717;46.924;15.474;2023-04-06T01:15:42;98134.38;;;-0.32;72.06
27202;BME280;14717;46.924;15.474;2023-04-06T01:18:08;98135.44;;;-0.33;71.42
27202;BME280;14717;46.924;15.474;2023-04-06T01:20:36;98140.13;;;-0.52;72.22
27202;BME280;14717;46.924;15.474;2023-04-06T01:23:01;98134.72;;;-0.52;72.67
27202;BME280;14717;46.924;15.474;2023-04-06T01:25:27;98138.78;;;-0.37;73.14
27202;BME280;14717;46.924;15.474;2023-04-06T01:27:52;98134.38;;;-0.32;72.25
27202;BME280;14717;46.924;15.474;2023-04-06T01:30:18;98139.69;;;-0.49;72.63
27202;BME280;14717;46.924;15.474;2023-04-06T01:32:43;98137.69;;;-0.60;72.74
27202;BME280;14717;46.924;15.474;2023-04-06T01:35:10;98141.00;;;-0.58;73.13
27202;BME280;14717;46.924;15.474;2023-04-06T01:37:35;98137.88;;;-0.62;72.57
27202;BME280;14717;46.924;15.474;2023-04-06T01:40:01;98137.47;;;-0.59;72.27
27202;BME280;14717;46.924;15.474;2023-04-06T01:42:26;98130.56;;;-0.61;72.43
27202;BME280;14717;46.924;15.474;2023-04-06T01:44:53;98126.94;;;-0.86;72.97
27202;BME280;14717;46.924;15.474;2023-04-06T01:47:18;98129.88;;;-0.94;73.46
27202;BME280;14717;46.924;15.474;2023-04-06T01:49:43;98139.69;;;-0.93;73.41
27202;BME280;14717;46.924;15.474;2023-04-06T01:52:09;98136.34;;;-0.88;72.26
27202;BME280;14717;46.924;15.474;2023-04-06T01:54:34;98132.59;;;-0.94;73.16
27202;BME280;14717;46.924;15.474;2023-04-06T01:57:00;98130.38;;;-1.03;73.85
27202;BME280;14717;46.924;15.474;2023-04-06T01:59:25;98132.50;;;-1.12;75.27
27202;BME280;14717;46.924;15.474;2023-04-06T02:01:50;98127.47;;;-1.08;75.13
27202;BME280;14717;46.924;15.474;2023-04-06T02:04:16;98129.53;;;-1.10;74.67
27202;BME280;14717;46.924;15.474;2023-04-06T02:06:41;98128.09;;;-1.13;74.31
27202;BME280;14717;46.924;15.474;2023-04-06T02:09:07;98123.13;;;-1.22;74.74
27202;BME280;14717;46.924;15.474;2023-04-06T02:11:32;98125.16;;;-1.05;74.50
27202;BME280;14717;46.924;15.474;2023-04-06T02:13:57;98123.44;;;-0.93;73.19
27202;BME280;14717;46.924;15.474;2023-04-06T02:16:25;98120.69;;;-0.80;73.72
27202;BME280;14717;46.924;15.474;2023-04-06T02:18:50;98123.16;;;-0.79;73.34
27202;BME280;14717;46.924;15.474;2023-04-06T02:21:16;98123.91;;;-1.09;73.84
27202;BME280;14717;46.924;15.474;2023-04-06T02:23:48;98122.13;;;-1.34;74.30
27202;BME280;14717;46.924;15.474;2023-04-06T02:26:14;98127.50;;;-1.21;74.34
27202;BME280;14717;46.924;15.474;2023-04-06T02:28:40;98120.81;;;-1.19;73.80
27202;BME280;14717;46.924;15.474;2023-04-06T02:31:05;98122.72;;;-1.26;73.46
27202;BME280;14717;46.924;15.474;2023-04-06T02:33:31;98127.31;;;-1.32;75.05
27202;BME280;14717;46.924;15.474;2023-04-06T02:35:56;98112.72;;;-1.31;74.91
27202;BME280;14717;46.924;15.474;2023-04-06T02:38:22;98121.47;;;-1.23;73.81
27202;BME280;14717;46.924;15.474;2023-04-06T02:40:47;98116.06;;;-1.29;74.64
27202;BME280;14717;46.924;15.474;2023-04-06T02:43:12;98117.34;;;-1.45;76.59
27202;BME280;14717;46.924;15.474;2023-04-06T02:45:38;98120.91;;;-1.38;76.15
27202;BME280;14717;46.924;15.474;2023-04-06T02:48:04;98108.75;;;-1.23;75.43
27202;BME280;14717;46.924;15.474;2023-04-06T02:50:29;98114.59;;;-1.26;75.67
27202;BME280;14717;46.924;15.474;2023-04-06T02:52:55;98111.66;;;-1.24;75.10
27202;BME280;14717;46.924;15.474;2023-04-06T02:55:20;98108.28;;;-1.07;76.09
27202;BME280;14717;46.924;15.474;2023-04-06T02:57:45;98113.63;;;-0.94;76.70
27202;BME280;14717;46.924;15.474;2023-04-06T03:00:11;98110.09;;;-0.94;76.70
27202;BME280;14717;46.924;15.474;2023-04-06T03:02:37;98104.09;;;-1.03;76.50
27202;BME280;14717;46.924;15.474;2023-04-06T03:05:03;98110.75;;;-1.05;76.49
27202;BME280;14717;46.924;15.474;2023-04-06T03:07:29;98103.53;;;-1.24;76.85
27202;BME280;14717;46.924;15.474;2023-04-06T03:09:54;98104.66;;;-1.44;78.79
27202;BME280;14717;46.924;15.474;2023-04-06T03:12:20;98108.22;;;-1.63;79.03
27202;BME280;14717;46.924;15.474;2023-04-06T03:14:45;98110.69;;;-1.42;77.87
27202;BME280;14717;46.924;15.474;2023-04-06T03:17:11;98106.91;;;-1.41;76.97
27202;BME280;14717;46.924;15.474;2023-04-06T03:19:36;98111.31;;;-1.47;77.05
27202;BME280;14717;46.924;15.474;2023-04-06T03:22:02;98118.22;;;-1.57;78.26
27202;BME280;14717;46.924;15.474;2023-04-06T03:24:27;98113.00;;;-1.59;78.28
27202;BME280;14717;46.924;15.474;2023-04-06T03:26:53;98113.00;;;-1.59;78.63
27202;BME280;14717;46.924;15.474;2023-04-06T03:29:18;98113.84;;;-1.71;78.88
27202;BME280;14717;46.924;15.474;2023-04-06T03:31:44;98114.50;;;-1.69;78.46
27202;BME280;14717;46.924;15.474;2023-04-06T03:34:09;98122.16;;;-1.60;77.58
27202;BME280;14717;46.924;15.474;2023-04-06T03:36:35;98114.22;;;-1.48;77.34
27202;BME280;14717;46.924;15.474;2023-04-06T03:39:01;98120.03;;;-1.38;76.63
27202;BME280;14717;46.924;15.474;2023-04-06T03:41:26;98121.53;;;-1.49;75.45
27202;BME280;14717;46.924;15.474;2023-04-06T03:43:52;98123.84;;;-1.59;75.97
27202;BME280;14717;46.924;15.474;2023-04-06T03:46:17;98124.47;;;-1.63;76.38
27202;BME280;14717;46.924;15.474;2023-04-06T03:48:43;98116.97;;;-1.61;76.71
27202;BME280;14717;46.924;15.474;2023-04-06T03:51:08;98125.13;;;-1.68;76.75
27202;BME280;14717;46.924;15.474;2023-04-06T03:53:34;98143.00;;;-1.73;76.56
27202;BME280;14717;46.924;15.474;2023-04-06T03:56:02;98132.16;;;-1.60;75.59
27202;BME280;14717;46.924;15.474;2023-04-06T03:58:27;98131.16;;;-1.59;75.48
27202;BME280;14717;46.924;15.474;2023-04-06T04:00:52;98129.25;;;-1.65;75.61
27202;BME280;14717;46.924;15.474;2023-04-06T04:03:18;98122.81;;;-1.70;76.56
27202;BME280;14717;46.924;15.474;2023-04-06T04:05:43;98134.06;;;-1.67;76.59
27202;BME280;14717;46.924;15.474;2023-04-06T04:08:08;98136.16;;;-1.82;76.27
27202;BME280;14717;46.924;15.474;2023-04-06T04:10:34;98122.84;;;-1.83;76.88
27202;BME280;14717;46.924;15.474;2023-04-06T04:12:59;98133.03;;;-1.85;77.53
27202;BME280;14717;46.924;15.474;2023-04-06T04:15:25;98138.44;;;-1.92;77.52
27202;BME280;14717;46.924;15.474;2023-04-06T04:17:50;98140.72;;;-1.76;77.73
27202;BME280;14717;46.924;15.474;2023-04-06T04:20:16;98135.94;;;-1.74;76.90
27202;BME280;14717;46.924;15.474;2023-04-06T04:22:41;98140.09;;;-1.78;76.75
27202;BME280;14717;46.924;15.474;2023-04-06T04:25:07;98140.31;;;-1.92;77.65
27202;BME280;14717;46.924;15.474;2023-04-06T04:27:33;98141.97;;;-1.98;79.03
27202;BME280;14717;46.924;15.474;2023-04-06T04:29:58;98143.84;;;-2.11;79.20
27202;BME280;14717;46.924;15.474;2023-04-06T04:32:24;98136.16;;;-2.08;79.22
27202;BME280;14717;46.924;15.474;2023-04-06T04:34:52;98145.94;;;-2.13;80.39
27202;BME280;14717;46.924;15.474;2023-04-06T04:37:18;98154.47;;;-2.03;80.06
27202;BME280;14717;46.924;15.474;2023-04-06T04:39:44;98155.50;;;-2.04;79.12
27202;BME280;14717;46.924;15.474;2023-04-06T04:42:10;98152.19;;;-2.06;79.61
27202;BME280;14717;46.924;15.474;2023-04-06T04:44:36;98152.19;;;-1.87;79.21
27202;BME280;14717;46.924;15.474;2023-04-06T04:47:01;98156.13;;;-1.96;78.78
27202;BME280;14717;46.924;15.474;2023-04-06T04:49:26;98162.38;;;-2.08;79.72
27202;BME280;14717;46.924;15.474;2023-04-06T04:51:52;98152.59;;;-1.90;79.50
27202;BME280;14717;46.924;15.474;2023-04-06T04:54:18;98149.69;;;-1.95;78.81
27202;BME280;14717;46.924;15.474;2023-04-06T04:56:44;98150.75;;;-2.09;79.38
27202;BME280;14717;46.924;15.474;2023-04-06T04:59:10;98150.50;;;-2.07;79.66
27202;BME280;14717;46.924;15.474;2023-04-06T05:01:35;98154.47;;;-2.16;80.27
27202;BME280;14717;46.924;15.474;2023-04-06T05:04:00;98151.56;;;-2.08;80.59
27202;BME280;14717;46.924;15.474;2023-04-06T05:06:26;98159.47;;;-2.07;79.34
27202;BME280;14717;46.924;15.474;2023-04-06T05:08:51;98156.34;;;-2.04;80.31
27202;BME280;14717;46.924;15.474;2023-04-06T05:11:17;98149.69;;;-1.88;79.70
27202;BME280;14717;46.924;15.474;2023-04-06T05:13:42;98155.91;;;-1.62;79.01
27202;BME280;14717;46.924;15.474;2023-04-06T05:16:08;98149.03;;;-1.58;78.57
27202;BME280;14717;46.924;15.474;2023-04-06T05:18:33;98155.25;;;-1.51;78.40
27202;BME280;14717;46.924;15.474;2023-04-06T05:20:59;98146.31;;;-1.52;79.22
27202;BME280;14717;46.924;15.474;2023-04-06T05:23:24;98147.50;;;-1.28;78.50
27202;BME280;14717;46.924;15.474;2023-04-06T05:25:50;98143.72;;;-1.08;78.49
27202;BME280;14717;46.924;15.474;2023-04-06T05:28:16;98150.38;;;-1.04;78.29
27202;BME280;14717;46.924;15.474;2023-04-06T05:30:42;98154.28;;;-0.94;78.38
27202;BME280;14717;46.924;15.474;2023-04-06T05:33:09;98150.34;;;-0.98;77.55
27202;BME280;14717;46.924;15.474;2023-04-06T05:35:34;98144.38;;;-0.69;77.76
27202;BME280;14717;46.924;15.474;2023-04-06T05:38:00;98149.97;;;-0.64;76.26
27202;BME280;14717;46.924;15.474;2023-04-06T05:40:25;98145.59;;;-0.59;76.16
27202;BME280;14717;46.924;15.474;2023-04-06T05:42:51;98138.41;;;-0.41;76.26
27202;BME280;14717;46.924;15.474;2023-04-06T05:45:16;98139.06;;;-0.14;75.31
27202;BME280;14717;46.924;15.474;2023-04-06T05:47:43;98134.09;;;0.07;74.34
27202;BME280;14717;46.924;15.474;2023-04-06T05:50:10;98146.81;;;0.06;73.42
27202;BME280;14717;46.924;15.474;2023-04-06T05:52:35;98150.72;;;0.17;73.00
27202;BME280;14717;46.924;15.474;2023-04-06T05:55:01;98138.56;;;0.43;70.65
27202;BME280;14717;46.924;15.474;2023-04-06T05:57:27;98147.59;;;0.38;69.04
27202;BME280;14717;46.924;15.474;2023-04-06T05:59:52;98144.31;;;0.78;68.63
27202;BME280;14717;46.924;15.474;2023-04-06T06:02:17;98147.28;;;0.94;67.51
27202;BME280;14717;46.924;15.474;2023-04-06T06:04:43;98144.75;;;1.28;67.50
27202;BME280;14717;46.924;15.474;2023-04-06T06:07:08;98142.88;;;1.46;65.44
27202;BME280;14717;46.924;15.474;2023-04-06T06:09:34;98145.09;;;1.49;65.13
27202;BME280;14717;46.924;15.474;2023-04-06T06:12:00;98141.34;;;1.50;64.07
27202;BME280;14717;46.924;15.474;2023-04-06T06:14:25;98137.13;;;1.66;64.25
27202;BME280;14717;46.924;15.474;2023-04-06T06:16:53;98137.13;;;1.95;62.83
27202;BME280;14717;46.924;15.474;2023-04-06T06:19:19;98137.84;;;2.02;63.21
27202;BME280;14717;46.924;15.474;2023-04-06T06:21:44;98147.47;;;2.04;63.19
27202;BME280;14717;46.924;15.474;2023-04-06T06:24:10;98132.25;;;2.37;61.17
27202;BME280;14717;46.924;15.474;2023-04-06T06:26:35;98131.56;;;2.64;60.87
27202;BME280;14717;46.924;15.474;2023-04-06T06:29:03;98135.84;;;2.72;60.44
27202;BME280;14717;46.924;15.474;2023-04-06T06:31:30;98128.94;;;2.92;59.98
27202;BME280;14717;46.924;15.474;2023-04-06T06:33:55;98134.03;;;3.00;58.88
27202;BME280;14717;46.924;15.474;2023-04-06T06:36:21;98130.13;;;3.07;58.15
27202;BME280;14717;46.924;15.474;2023-04-06T06:38:46;98133.56;;;3.14;58.55
27202;BME280;14717;46.924;15.474;2023-04-06T06:41:12;98125.28;;;2.98;58.22
27202;BME280;14717;46.924;15.474;2023-04-06T06:43:38;98123.72;;;3.02;57.45
27202;BME280;14717;46.924;15.474;2023-04-06T06:46:04;98125.19;;;3.43;57.77
27202;BME280;14717;46.924;15.474;2023-04-06T06:48:29;98124.63;;;3.69;55.37
27202;BME280;14717;46.924;15.474;2023-04-06T06:50:56;98124.38;;;3.71;55.05
27202;BME280;14717;46.924;15.474;2023-04-06T06:53:21;98125.19;;;3.71;55.71
27202;BME280;14717;46.924;15.474;2023-04-06T06:55:47;98131.16;;;3.96;55.33
27202;BME280;14717;46.924;15.474;2023-04-06T06:58:14;98118.53;;;3.79;53.71
27202;BME280;14717;46.924;15.474;2023-04-06T07:00:39;98124.19;;;3.88;55.58
27202;BME280;14717;46.924;15.474;2023-04-06T07:03:05;98120.94;;;4.19;53.63
27202;BME280;14717;46.924;15.474;2023-04-06T07:05:30;98122.44;;;4.26;53.11
27202;BME280;14717;46.924;15.474;2023-04-06T07:07:56;98121.97;;;4.46;53.16
27202;BME280;14717;46.924;15.474;2023-04-06T07:10:22;98122.78;;;4.63;51.91
27202;BME280;14717;46.924;15.474;2023-04-06T07:12:47;98123.09;;;4.82;52.24
27202;BME280;14717;46.924;15.474;2023-04-06T07:15:13;98120.38;;;4.82;51.06
27202;BME280;14717;46.924;15.474;2023-04-06T07:17:39;98125.56;;;5.00;52.39
27202;BME280;14717;46.924;15.474;2023-04-06T07:20:06;98127.19;;;5.17;51.25
27202;BME280;14717;46.924;15.474;2023-04-06T07:22:32;98123.84;;;5.32;50.89
27202;BME280;14717;46.924;15.474;2023-04-06T07:24:57;98120.19;;;5.26;49.53
27202;BME280;14717;46.924;15.474;2023-04-06T07:27:23;98117.53;;;5.31;50.31
27202;BME280;14717;46.924;15.474;2023-04-06T07:29:48;98117.28;;;5.54;49.16
27202;BME280;14717;46.924;15.474;2023-04-06T07:32:14;98108.94;;;5.65;49.02
27202;BME280;14717;46.924;15.474;2023-04-06T07:34:39;98116.44;;;5.96;48.91
27202;BME280;14717;46.924;15.474;2023-04-06T07:37:05;98109.44;;;6.05;48.03
27202;BME280;14717;46.924;15.474;2023-04-06T07:39:31;98110.66;;;6.19;47.15
27202;BME280;14717;46.924;15.474;2023-04-06T07:41:56;98109.69;;;6.30;47.21
27202;BME280;14717;46.924;15.474;2023-04-06T07:44:22;98115.00;;;6.41;47.27
27202;BME280;14717;46.924;15.474;2023-04-06T07:46:47;98103.13;;;6.67;45.95
27202;BME280;14717;46.924;15.474;2023-04-06T07:49:12;98096.41;;;6.79;45.67
27202;BME280;14717;46.924;15.474;2023-04-06T07:51:39;98104.44;;;6.90;42.71
27202;BME280;14717;46.924;15.474;2023-04-06T07:54:04;98088.84;;;7.01;42.01
27202;BME280;14717;46.924;15.474;2023-04-06T07:56:30;98091.50;;;6.86;41.45
27202;BME280;14717;46.924;15.474;2023-04-06T07:58:55;98084.19;;;7.01;42.32
27202;BME280;14717;46.924;15.474;2023-04-06T08:01:22;98085.38;;;7.15;41.05
27202;BME280;14717;46.924;15.474;2023-04-06T08:03:47;98075.84;;;7.32;40.87
27202;BME280;14717;46.924;15.474;2023-04-06T08:06:12;98076.53;;;7.59;43.13
27202;BME280;14717;46.924;15.474;2023-04-06T08:08:38;98075.47;;;7.70;41.42
27202;BME280;14717;46.924;15.474;2023-04-06T08:11:03;98073.59;;;7.90;40.63
27202;BME280;14717;46.924;15.474;2023-04-06T08:13:29;98077.22;;;8.01;39.81
27202;BME280;14717;46.924;15.474;2023-04-06T08:15:54;98073.44;;;8.16;39.84
27202;BME280;14717;46.924;15.474;2023-04-06T08:18:20;98076.19;;;8.26;39.33
27202;BME280;14717;46.924;15.474;2023-04-06T08:20:45;98071.00;;;8.25;37.80
27202;BME280;14717;46.924;15.474;2023-04-06T08:23:10;98061.34;;;8.37;38.18
27202;BME280;14717;46.924;15.474;2023-04-06T08:25:36;98064.38;;;8.41;37.16
27202;BME280;14717;46.924;15.474;2023-04-06T08:28:03;98060.56;;;8.56;39.73
27202;BME280;14717;46.924;15.474;2023-04-06T08:30:29;98061.91;;;8.59;38.09
27202;BME280;14717;46.924;15.474;2023-04-06T08:32:54;98052.81;;;8.68;37.48
27202;BME280;14717;46.924;15.474;2023-04-06T08:35:20;98052.56;;;8.40;40.13
27202;BME280;14717;46.924;15.474;2023-04-06T08:37:45;98043.09;;;7.92;37.96
27202;BME280;14717;46.924;15.474;2023-04-06T08:40:12;98041.00;;;8.38;40.50
27202;BME280;14717;46.924;15.474;2023-04-06T08:42:44;98041.53;;;8.30;40.16
27202;BME280;14717;46.924;15.474;2023-04-06T08:45:16;98036.56;;;8.87;38.12
27202;BME280;14717;46.924;15.474;2023-04-06T08:47:42;98037.59;;;9.20;37.65
27202;BME280;14717;46.924;15.474;2023-04-06T08:50:08;98022.66;;;9.31;36.24
27202;BME280;14717;46.924;15.474;2023-04-06T08:52:33;98025.88;;;9.53;37.52
27202;BME280;14717;46.924;15.474;2023-04-06T08:54:59;98029.94;;;8.92;36.26
27202;BME280;14717;46.924;15.474;2023-04-06T08:57:26;98024.19;;;8.79;40.51
27202;BME280;14717;46.924;15.474;2023-04-06T08:59:52;98032.16;;;8.71;37.73
27202;BME280;14717;46.924;15.474;2023-04-06T09:02:19;98025.50;;;9.01;37.66
27202;BME280;14717;46.924;15.474;2023-04-06T09:04:48;98018.41;;;8.86;36.58
27202;BME280;14717;46.924;15.474;2023-04-06T09:07:17;98018.94;;;8.92;37.99
27202;BME280;14717;46.924;15.474;2023-04-06T09:09:42;98000.22;;;9.57;38.30
27202;BME280;14717;46.924;15.474;2023-04-06T09:12:30;97998.59;;;10.09;37.07
27202;BME280;14717;46.924;15.474;2023-04-06T09:14:56;97995.03;;;9.99;35.85
27202;BME280;14717;46.924;15.474;2023-04-06T09:17:26;97996.53;;;9.81;37.51
27202;BME280;14717;46.924;15.474;2023-04-06T09:19:52;97992.28;;;9.99;37.71
27202;BME280;14717;46.924;15.474;2023-04-06T09:22:18;97989.09;;;10.20;38.20
27202;BME280;14717;46.924;15.474;2023-04-06T09:24:45;97989.53;;;10.37;35.36
27202;BME280;14717;46.924;15.474;2023-04-06T09:27:12;97978.22;;;10.66;37.14
27202;BME280;14717;46.924;15.474;2023-04-06T09:29:38;97971.25;;;10.97;35.13
27202;BME280;14717;46.924;15.474;2023-04-06T09:32:05;97977.19;;;10.86;37.00
27202;BME280;14717;46.924;15.474;2023-04-06T09:34:31;97971.19;;;10.79;37.04
27202;BME280;14717;46.924;15.474;2023-04-06T09:36:56;97963.22;;;11.24;35.25
27202;BME280;14717;46.924;15.474;2023-04-06T09:39:22;97961.75;;;11.31;34.87
27202;BME280;14717;46.924;15.474;2023-04-06T09:41:52;97954.03;;;11.28;36.40
27202;BME280;14717;46.924;15.474;2023-04-06T09:44:18;97962.97;;;10.97;33.71
27202;BME280;14717;46.924;15.474;2023-04-06T09:46:45;97953.34;;;11.18;34.58
27202;BME280;14717;46.924;15.474;2023-04-06T09:49:12;97960.19;;;11.48;37.05
27202;BME280;14717;46.924;15.474;2023-04-06T09:51:45;97956.50;;;10.83;35.09
27202;BME280;14717;46.924;15.474;2023-04-06T09:54:21;97944.38;;;10.79;35.17
27202;BME280;14717;46.924;15.474;2023-04-06T09:56:54;97938.88;;;11.26;34.08
27202;BME280;14717;46.924;15.474;2023-04-06T09:59:44;97939.47;;;11.23;34.27
27202;BME280;14717;46.924;15.474;2023-04-06T10:05:09;97939.56;;;11.59;34.36
27202;BME280;14717;46.924;15.474;2023-04-06T10:07:39;97934.53;;;11.61;33.44
27202;BME280;14717;46.924;15.474;2023-04-06T10:10:05;97931.28;;;11.78;32.64
27202;BME280;14717;46.924;15.474;2023-04-06T10:12:31;97929.81;;;11.44;33.45
27202;BME280;14717;46.924;15.474;2023-04-06T10:14:57;97924.69;;;11.09;35.59
27202;BME280;14717;46.924;15.474;2023-04-06T10:17:22;97919.16;;;11.09;34.12
27202;BME280;14717;46.924;15.474;2023-04-06T10:19:57;97920.19;;;11.59;33.64
27202;BME280;14717;46.924;15.474;2023-04-06T10:22:34;97910.03;;;11.73;32.94
27202;BME280;14717;46.924;15.474;2023-04-06T10:25:01;97911.09;;;11.77;32.61
27202;BME280;14717;46.924;15.474;2023-04-06T10:27:30;97901.13;;;12.13;32.47
27202;BME280;14717;46.924;15.474;2023-04-06T10:30:06;97903.66;;;11.91;32.20
27202;BME280;14717;46.924;15.474;2023-04-06T10:32:38;97892.59;;;11.91;32.71
27202;BME280;14717;46.924;15.474;2023-04-06T10:35:09;97891.22;;;12.07;31.95
27202;BME280;14717;46.924;15.474;2023-04-06T10:38:07;97889.59;;;11.69;31.36
27202;BME280;14717;46.924;15.474;2023-04-06T10:40:36;97882.94;;;12.07;31.23
27202;BME280;14717;46.924;15.474;2023-04-06T10:43:19;97870.44;;;12.41;31.06
27202;BME280;14717;46.924;15.474;2023-04-06T10:45:54;97872.03;;;12.29;29.90
27202;BME280;14717;46.924;15.474;2023-04-06T10:48:20;97862.94;;;12.55;30.96
27202;BME280;14717;46.924;15.474;2023-04-06T10:50:52;97859.63;;;12.98;31.61
27202;BME280;14717;46.924;15.474;2023-04-06T10:53:25;97868.28;;;13.10;29.25
27202;BME280;14717;46.924;15.474;2023-04-06T10:55:55;97856.72;;;12.63;33.97
27202;BME280;14717;46.924;15.474;2023-04-06T10:58:25;97854.56;;;12.73;30.41
27202;BME280;14717;46.924;15.474;2023-04-06T11:00:51;97860.56;;;12.35;30.51
27202;BME280;14717;46.924;15.474;2023-04-06T11:03:17;97856.34;;;12.96;30.05
27202;BME280;14717;46.924;15.474;2023-04-06T11:05:43;97852.03;;;13.17;31.52
27202;BME280;14717;46.924;15.474;2023-04-06T11:08:09;97851.78;;;12.73;29.76
27202;BME280;14717;46.924;15.474;2023-04-06T11:10:35;97850.06;;;12.77;32.76
27202;BME280;14717;46.924;15.474;2023-04-06T11:13:00;97843.97;;;12.62;30.28
27202;BME280;14717;46.924;15.474;2023-04-06T11:15:26;97843.19;;;12.88;29.25
27202;BME280;14717;46.924;15.474;2023-04-06T11:17:51;97834.16;;;13.09;29.01
27202;BME280;14717;46.924;15.474;2023-04-06T11:20:17;97835.34;;;13.43;30.83
27202;BME280;14717;46.924;15.474;2023-04-06T11:22:53;97804.38;;;13.15;30.05
27202;BME280;14717;46.924;15.474;2023-04-06T11:25:19;97824.09;;;13.26;34.08
27202;BME280;14717;46.924;15.474;2023-04-06T11:27:46;97830.03;;;12.80;30.94
27202;BME280;14717;46.924;15.474;2023-04-06T11:30:13;97821.13;;;12.96;30.70
27202;BME280;14717;46.924;15.474;2023-04-06T11:32:42;97810.84;;;12.70;29.42
27202;BME280;14717;46.924;15.474;2023-04-06T11:35:24;97812.13;;;13.26;28.73
27202;BME280;14717;46.924;15.474;2023-04-06T11:37:50;97793.97;;;13.55;29.47
27202;BME280;14717;46.924;15.474;2023-04-06T11:40:23;97799.41;;;13.25;29.38
27202;BME280;14717;46.924;15.474;2023-04-06T11:42:53;97795.59;;;13.34;30.98
27202;BME280;14717;46.924;15.474;2023-04-06T11:45:19;97784.59;;;13.64;28.96
27202;BME280;14717;46.924;15.474;2023-04-06T11:47:45;97796.88;;;13.50;26.80
27202;BME280;14717;46.924;15.474;2023-04-06T11:50:12;97783.50;;;13.52;28.30
27202;BME280;14717;46.924;15.474;2023-04-06T11:52:39;97773.69;;;13.90;28.26
27202;BME280;14717;46.924;15.474;2023-04-06T11:55:15;97789.75;;;13.36;28.37
27202;BME280;14717;46.924;15.474;2023-04-06T11:57:42;97784.56;;;12.81;28.95
27202;BME280;14717;46.924;15.474;2023-04-06T12:00:08;97785.44;;;12.76;27.86
27202;BME280;14717;46.924;15.474;2023-04-06T12:02:35;97780.84;;;12.72;29.96
27202;BME280;14717;46.924;15.474;2023-04-06T12:05:02;97781.78;;;12.81;29.65
27202;BME280;14717;46.924;15.474;2023-04-06T12:07:29;97772.13;;;13.75;28.21
27202;BME280;14717;46.924;15.474;2023-04-06T12:09:55;97773.63;;;13.81;29.68
27202;BME280;14717;46.924;15.474;2023-04-06T12:12:20;97761.75;;;13.89;26.82
27202;BME280;14717;46.924;15.474;2023-04-06T12:14:46;97767.66;;;14.09;30.28
27202;BME280;14717;46.924;15.474;2023-04-06T12:17:11;97772.94;;;13.76;28.60
27202;BME280;14717;46.924;15.474;2023-04-06T12:19:36;97749.94;;;14.27;27.63
27202;BME280;14717;46.924;15.474;2023-04-06T12:22:02;97759.84;;;13.98;26.33
27202;BME280;14717;46.924;15.474;2023-04-06T12:24:28;97759.06;;;13.76;27.10
27202;BME280;14717;46.924;15.474;2023-04-06T12:26:53;97767.84;;;13.34;27.35
27202;BME280;14717;46.924;15.474;2023-04-06T12:29:19;97748.31;;;13.61;28.07
27202;BME280;14717;46.924;15.474;2023-04-06T12:31:45;97745.53;;;13.83;26.31
27202;BME280;14717;46.924;15.474;2023-04-06T12:34:11;97751.34;;;13.73;27.93
27202;BME280;14717;46.924;15.474;2023-04-06T12:36:36;97748.81;;;13.63;27.46
27202;BME280;14717;46.924;15.474;2023-04-06T12:39:02;97739.34;;;13.42;26.88
27202;BME280;14717;46.924;15.474;2023-04-06T12:41:28;97741.91;;;13.74;27.81
27202;BME280;14717;46.924;15.474;2023-04-06T12:43:54;97723.75;;;14.20;29.26
27202;BME280;14717;46.924;15.474;2023-04-06T12:46:19;97738.50;;;14.29;28.11
27202;BME280;14717;46.924;15.474;2023-04-06T12:48:45;97734.91;;;14.67;26.76
27202;BME280;14717;46.924;15.474;2023-04-06T12:51:11;97726.94;;;14.05;27.90